sensor_id;sensor_type;location;lat;lon;timestamp;pressure;altitude;pressure_sealevel;temperature;humidity
70103;BME280;57470;50.034;15.256;2023-04-22T00:02:24;99285.53;;;7.18;88.64
70103;BME280;57470;50.034;15.256;2023-04-22T00:04:51;99288.00;;;7.21;88.79
70103;BME280;57470;50.034;15.256;2023-04-22T00:07:17;99291.16;;;7.12;88.94
70103;BME280;57470;50.034;15.256;2023-04-22T00:09:42;99292.09;;;7.11;89.33
70103;BME280;57470;50.034;15.256;2023-04-22T00:12:08;99289.97;;;7.02;89.78
70103;BME280;57470;50.034;15.256;2023-04-22T00:14:36;99282.22;;;6.99;89.93
70103;BME280;57470;50.034;15.256;2023-04-22T00:17:01;99286.75;;;6.97;90.09
70103;BME280;57470;50.034;15.256;2023-04-22T00:19:27;99282.84;;;6.88;90.34
70103;BME280;57470;50.034;15.256;2023-04-22T00:21:52;99286.69;;;6.83;90.40
70103;BME280;57470;50.034;15.256;2023-04-22T00:24:18;99286.06;;;6.93;89.66
70103;BME280;57470;50.034;15.256;2023-04-22T00:26:43;99284.44;;;6.91;89.80
70103;BME280;57470;50.034;15.256;2023-04-22T00:29:09;99284.66;;;6.88;90.14
70103;BME280;57470;50.034;15.256;2023-04-22T00:31:34;99289.41;;;6.65;91.27
70103;BME280;57470;50.034;15.256;2023-04-22T00:33:59;99281.13;;;6.71;90.58
70103;BME280;57470;50.034;15.256;2023-04-22T00:36:26;99281.13;;;6.71;90.85
70103;BME280;57470;50.034;15.256;2023-04-22T00:38:52;99280.72;;;6.79;90.35
70103;BME280;57470;50.034;15.256;2023-04-22T00:41:18;99280.97;;;6.74;89.79
70103;BME280;57470;50.034;15.256;2023-04-22T00:43:43;99268.44;;;6.62;89.60
70103;BME280;57470;50.034;15.256;2023-04-22T00:46:09;99269.47;;;6.60;89.86
70103;BME280;57470;50.034;15.256;2023-04-22T00:48:37;99268.44;;;6.62;90.16
70103;BME280;57470;50.034;15.256;2023-04-22T00:51:04;99273.03;;;6.59;90.53
70103;BME280;57470;50.034;15.256;2023-04-22T00:53:29;99274.84;;;6.58;90.33
70103;BME280;57470;50.034;15.256;2023-04-22T00:55:55;99271.50;;;6.55;89.56
70103;BME280;57470;50.034;15.256;2023-04-22T00:58:22;99265.78;;;6.47;90.08
70103;BME280;57470;50.034;15.256;2023-04-22T01:00:50;99270.41;;;6.43;90.36
70103;BME280;57470;50.034;15.256;2023-04-22T01:03:15;99271.69;;;6.52;90.80
70103;BME280;57470;50.034;15.256;2023-04-22T01:05:42;99266.72;;;6.46;90.70
70103;BME280;57470;50.034;15.256;2023-04-22T01:08:07;99271.34;;;6.42;90.23
70103;BME280;57470;50.034;15.256;2023-04-22T01:10:33;99269.63;;;6.41;90.70
70103;BME280;57470;50.034;15.256;2023-04-22T01:12:59;99269.72;;;6.39;91.31
70103;BME280;57470;50.034;15.256;2023-04-22T01:15:25;99269.13;;;6.34;91.61
70103;BME280;57470;50.034;15.256;2023-04-22T01:17:52;99268.59;;;6.28;91.55
70103;BME280;57470;50.034;15.256;2023-04-22T01:20:17;99276.00;;;6.37;90.72
70103;BME280;57470;50.034;15.256;2023-04-22T01:22:44;99272.63;;;6.35;91.33
70103;BME280;57470;50.034;15.256;2023-04-22T01:25:11;99264.41;;;6.24;90.46
70103;BME280;57470;50.034;15.256;2023-04-22T01:27:38;99266.88;;;6.27;90.89
70103;BME280;57470;50.034;15.256;2023-04-22T01:30:04;99269.00;;;6.20;91.12
70103;BME280;57470;50.034;15.256;2023-04-22T01:32:30;99274.34;;;6.19;90.82
70103;BME280;57470;50.034;15.256;2023-04-22T01:34:57;99266.19;;;6.08;91.36
70103;BME280;57470;50.034;15.256;2023-04-22T01:37:22;99261.50;;;6.13;91.47
70103;BME280;57470;50.034;15.256;2023-04-22T01:39:48;99269.31;;;5.98;91.95
70103;BME280;57470;50.034;15.256;2023-04-22T01:42:14;99267.53;;;5.99;91.60
70103;BME280;57470;50.034;15.256;2023-04-22T01:44:40;99263.94;;;6.00;91.81
70103;BME280;57470;50.034;15.256;2023-04-22T01:47:05;99261.22;;;6.01;91.86
70103;BME280;57470;50.034;15.256;2023-04-22T01:49:32;99260.63;;;5.96;91.37
70103;BME280;57470;50.034;15.256;2023-04-22T01:51:57;99255.41;;;5.95;91.44
70103;BME280;57470;50.034;15.256;2023-04-22T01:54:23;99254.91;;;5.88;91.82
70103;BME280;57470;50.034;15.256;2023-04-22T01:56:53;99260.78;;;5.93;91.57
70103;BME280;57470;50.034;15.256;2023-04-22T01:59:19;99265.72;;;5.82;92.15
70103;BME280;57470;50.034;15.256;2023-04-22T02:01:46;99256.91;;;5.66;93.81
70103;BME280;57470;50.034;15.256;2023-04-22T02:04:14;99263.84;;;5.84;92.25
70103;BME280;57470;50.034;15.256;2023-04-22T02:06:41;99254.13;;;5.69;91.92
70103;BME280;57470;50.034;15.256;2023-04-22T02:09:08;99262.03;;;5.69;92.00
70103;BME280;57470;50.034;15.256;2023-04-22T02:11:35;99253.97;;;5.72;92.60
70103;BME280;57470;50.034;15.256;2023-04-22T02:14:02;99251.97;;;5.25;95.36
70103;BME280;57470;50.034;15.256;2023-04-22T02:16:29;99254.53;;;5.44;94.59
70103;BME280;57470;50.034;15.256;2023-04-22T02:18:56;99252.81;;;5.43;94.31
70103;BME280;57470;50.034;15.256;2023-04-22T02:21:23;99252.81;;;5.43;93.79
70103;BME280;57470;50.034;15.256;2023-04-22T02:23:50;99250.00;;;5.46;92.77
70103;BME280;57470;50.034;15.256;2023-04-22T02:26:16;99245.22;;;5.37;94.60
70103;BME280;57470;50.034;15.256;2023-04-22T02:28:44;99243.28;;;5.41;94.20
70103;BME280;57470;50.034;15.256;2023-04-22T02:31:11;99245.06;;;5.40;93.10
70103;BME280;57470;50.034;15.256;2023-04-22T02:33:38;99246.91;;;5.38;93.27
70103;BME280;57470;50.034;15.256;2023-04-22T02:36:05;99235.50;;;5.38;92.79
70103;BME280;57470;50.034;15.256;2023-04-22T02:38:32;99235.22;;;5.26;92.98
70103;BME280;57470;50.034;15.256;2023-04-22T02:40:58;99234.38;;;5.26;93.56
70103;BME280;57470;50.034;15.256;2023-04-22T02:43:25;99237.22;;;5.21;93.31
70103;BME280;57470;50.034;15.256;2023-04-22T02:45:53;99238.53;;;5.13;95.31
70103;BME280;57470;50.034;15.256;2023-04-22T02:48:19;99233.66;;;5.22;93.85
70103;BME280;57470;50.034;15.256;2023-04-22T02:50:46;99235.38;;;5.23;92.99
70103;BME280;57470;50.034;15.256;2023-04-22T02:53:13;99233.66;;;5.22;93.30
70103;BME280;57470;50.034;15.256;2023-04-22T02:55:41;99226.69;;;5.21;93.44
70103;BME280;57470;50.034;15.256;2023-04-22T02:58:07;99225.22;;;5.16;93.48
70103;BME280;57470;50.034;15.256;2023-04-22T03:00:33;99227.69;;;5.02;94.31
70103;BME280;57470;50.034;15.256;2023-04-22T03:02:58;99233.66;;;5.05;94.21
70103;BME280;57470;50.034;15.256;2023-04-22T03:05:24;99227.41;;;5.08;93.31
70103;BME280;57470;50.034;15.256;2023-04-22T03:07:50;99232.09;;;5.01;94.64
70103;BME280;57470;50.034;15.256;2023-04-22T03:10:15;99229.09;;;5.09;93.57
70103;BME280;57470;50.034;15.256;2023-04-22T03:12:40;99227.16;;;5.12;93.27
70103;BME280;57470;50.034;15.256;2023-04-22T03:15:06;99224.03;;;5.04;94.46
70103;BME280;57470;50.034;15.256;2023-04-22T03:17:32;99224.81;;;4.89;94.82
70103;BME280;57470;50.034;15.256;2023-04-22T03:19:57;99227.78;;;5.00;94.63
70103;BME280;57470;50.034;15.256;2023-04-22T03:22:23;99227.13;;;4.95;94.39
70103;BME280;57470;50.034;15.256;2023-04-22T03:24:48;99224.97;;;5.03;93.90
70103;BME280;57470;50.034;15.256;2023-04-22T03:27:13;99233.91;;;5.01;93.22
70103;BME280;57470;50.034;15.256;2023-04-22T03:29:39;99225.34;;;4.96;92.92
70103;BME280;57470;50.034;15.256;2023-04-22T03:32:04;99233.41;;;4.93;93.39
70103;BME280;57470;50.034;15.256;2023-04-22T03:34:30;99226.59;;;4.88;93.32
70103;BME280;57470;50.034;15.256;2023-04-22T03:36:55;99227.53;;;4.87;92.69
70103;BME280;57470;50.034;15.256;2023-04-22T03:39:20;99230.28;;;4.84;93.05
70103;BME280;57470;50.034;15.256;2023-04-22T03:41:46;99232.72;;;4.89;92.44
70103;BME280;57470;50.034;15.256;2023-04-22T03:44:11;99230.53;;;4.80;93.13
70103;BME280;57470;50.034;15.256;2023-04-22T03:46:36;99226.53;;;4.90;93.04
70103;BME280;57470;50.034;15.256;2023-04-22T03:49:02;99230.41;;;4.83;93.67
70103;BME280;57470;50.034;15.256;2023-04-22T03:51:27;99225.13;;;4.83;93.61
70103;BME280;57470;50.034;15.256;2023-04-22T03:53:53;99226.97;;;4.81;92.67
70103;BME280;57470;50.034;15.256;2023-04-22T03:56:19;99223.41;;;4.82;93.14
70103;BME280;57470;50.034;15.256;2023-04-22T03:58:44;99233.72;;;4.86;92.83
70103;BME280;57470;50.034;15.256;2023-04-22T04:01:09;99225.03;;;4.84;93.21
70103;BME280;57470;50.034;15.256;2023-04-22T04:03:35;99233.09;;;4.81;93.49
70103;BME280;57470;50.034;15.256;2023-04-22T04:06:01;99241.06;;;4.80;93.56
70103;BME280;57470;50.034;15.256;2023-04-22T04:08:26;99239.38;;;4.79;94.23
70103;BME280;57470;50.034;15.256;2023-04-22T04:10:52;99245.19;;;4.85;94.46
70103;BME280;57470;50.034;15.256;2023-04-22T04:13:17;99234.81;;;4.82;94.75
70103;BME280;57470;50.034;15.256;2023-04-22T04:15:43;99241.06;;;4.80;94.97
70103;BME280;57470;50.034;15.256;2023-04-22T04:18:08;99240.28;;;4.78;94.42
70103;BME280;57470;50.034;15.256;2023-04-22T04:20:34;99239.13;;;4.83;94.10
70103;BME280;57470;50.034;15.256;2023-04-22T04:22:59;99248.19;;;4.78;93.97
70103;BME280;57470;50.034;15.256;2023-04-22T04:25:24;99242.50;;;4.68;94.54
70103;BME280;57470;50.034;15.256;2023-04-22T04:27:50;99242.13;;;4.76;94.36
70103;BME280;57470;50.034;15.256;2023-04-22T04:30:17;99239.22;;;4.82;94.54
70103;BME280;57470;50.034;15.256;2023-04-22T04:32:43;99242.94;;;4.78;94.99
70103;BME280;57470;50.034;15.256;2023-04-22T04:35:09;99242.84;;;4.79;95.09
70103;BME280;57470;50.034;15.256;2023-04-22T04:37:37;99234.81;;;4.82;95.77
70103;BME280;57470;50.034;15.256;2023-04-22T04:40:05;99236.81;;;4.95;94.86
70103;BME280;57470;50.034;15.256;2023-04-22T04:42:31;99239.72;;;5.07;94.77
70103;BME280;57470;50.034;15.256;2023-04-22T04:44:57;99236.84;;;5.12;95.29
70103;BME280;57470;50.034;15.256;2023-04-22T04:47:23;99245.59;;;5.12;94.92
70103;BME280;57470;50.034;15.256;2023-04-22T04:49:49;99238.34;;;5.17;95.38
70103;BME280;57470;50.034;15.256;2023-04-22T04:52:17;99236.44;;;5.19;95.97
70103;BME280;57470;50.034;15.256;2023-04-22T04:54:43;99238.34;;;5.17;97.65
70103;BME280;57470;50.034;15.256;2023-04-22T04:57:08;99242.09;;;5.29;97.45
70103;BME280;57470;50.034;15.256;2023-04-22T04:59:34;99238.09;;;5.22;100.00
70103;BME280;57470;50.034;15.256;2023-04-22T05:01:59;99238.47;;;5.49;99.16
70103;BME280;57470;50.034;15.256;2023-04-22T05:04:25;99236.72;;;5.65;99.17
70103;BME280;57470;50.034;15.256;2023-04-22T05:06:50;99240.88;;;5.53;100.00
70103;BME280;57470;50.034;15.256;2023-04-22T05:09:16;99240.94;;;5.52;100.00
70103;BME280;57470;50.034;15.256;2023-04-22T05:11:41;99244.03;;;5.60;100.00
70103;BME280;57470;50.034;15.256;2023-04-22T05:14:06;99241.41;;;5.60;100.00
70103;BME280;57470;50.034;15.256;2023-04-22T05:16:32;99247.47;;;5.62;100.00
70103;BME280;57470;50.034;15.256;2023-04-22T05:18:57;99244.09;;;5.76;100.00
70103;BME280;57470;50.034;15.256;2023-04-22T05:21:23;99240.88;;;5.86;100.00
70103;BME280;57470;50.034;15.256;2023-04-22T05:23:48;99244.84;;;5.95;100.00
70103;BME280;57470;50.034;15.256;2023-04-22T05:26:14;99248.50;;;5.92;100.00
70103;BME280;57470;50.034;15.256;2023-04-22T05:28:39;99248.56;;;6.24;100.00
70103;BME280;57470;50.034;15.256;2023-04-22T05:31:05;99246.94;;;6.37;100.00
70103;BME280;57470;50.034;15.256;2023-04-22T05:33:31;99245.16;;;6.53;100.00
70103;BME280;57470;50.034;15.256;2023-04-22T05:35:56;99242.44;;;6.70;100.00
70103;BME280;57470;50.034;15.256;2023-04-22T05:38:22;99246.38;;;6.79;100.00
70103;BME280;57470;50.034;15.256;2023-04-22T05:40:47;99248.13;;;6.94;100.00
70103;BME280;57470;50.034;15.256;2023-04-22T05:43:13;99250.56;;;7.13;100.00
70103;BME280;57470;50.034;15.256;2023-04-22T05:45:38;99240.09;;;7.26;100.00
70103;BME280;57470;50.034;15.256;2023-04-22T05:48:04;99243.91;;;7.36;100.00
70103;BME280;57470;50.034;15.256;2023-04-22T05:50:29;99239.91;;;7.59;99.08
70103;BME280;57470;50.034;15.256;2023-04-22T05:52:54;99243.50;;;7.58;98.82
70103;BME280;57470;50.034;15.256;2023-04-22T05:55:20;99238.63;;;7.94;97.95
70103;BME280;57470;50.034;15.256;2023-04-22T05:57:45;99237.47;;;7.98;96.45
70103;BME280;57470;50.034;15.256;2023-04-22T06:00:11;99231.03;;;8.31;96.28
70103;BME280;57470;50.034;15.256;2023-04-22T06:02:36;99232.25;;;8.53;94.93
70103;BME280;57470;50.034;15.256;2023-04-22T06:05:02;99229.06;;;8.75;93.92
70103;BME280;57470;50.034;15.256;2023-04-22T06:07:27;99232.09;;;8.96;92.96
70103;BME280;57470;50.034;15.256;2023-04-22T06:09:53;99234.53;;;9.26;90.99
70103;BME280;57470;50.034;15.256;2023-04-22T06:12:18;99235.81;;;9.33;90.73
70103;BME280;57470;50.034;15.256;2023-04-22T06:14:44;99223.97;;;9.76;90.77
70103;BME280;57470;50.034;15.256;2023-04-22T06:17:09;99226.44;;;9.92;89.55
70103;BME280;57470;50.034;15.256;2023-04-22T06:19:35;99225.03;;;10.37;88.77
70103;BME280;57470;50.034;15.256;2023-04-22T06:22:00;99223.34;;;10.11;85.77
70103;BME280;57470;50.034;15.256;2023-04-22T06:24:26;99223.09;;;10.39;84.88
70103;BME280;57470;50.034;15.256;2023-04-22T06:26:51;99222.78;;;10.44;84.96
70103;BME280;57470;50.034;15.256;2023-04-22T06:29:16;99223.84;;;10.65;84.26
70103;BME280;57470;50.034;15.256;2023-04-22T06:31:42;99230.72;;;11.04;82.73
70103;BME280;57470;50.034;15.256;2023-04-22T06:34:07;99220.63;;;11.44;82.71
70103;BME280;57470;50.034;15.256;2023-04-22T06:36:32;99224.25;;;11.54;80.66
70103;BME280;57470;50.034;15.256;2023-04-22T06:39:04;99219.38;;;11.83;80.70
70103;BME280;57470;50.034;15.256;2023-04-22T06:41:30;99220.13;;;12.19;79.99
70103;BME280;57470;50.034;15.256;2023-04-22T06:43:56;99216.25;;;11.89;79.57
70103;BME280;57470;50.034;15.256;2023-04-22T06:46:22;99222.56;;;12.11;77.67
70103;BME280;57470;50.034;15.256;2023-04-22T06:48:47;99216.25;;;12.12;75.59
70103;BME280;57470;50.034;15.256;2023-04-22T06:51:12;99218.31;;;12.42;75.24
70103;BME280;57470;50.034;15.256;2023-04-22T06:53:38;99216.31;;;13.20;73.61
70103;BME280;57470;50.034;15.256;2023-04-22T06:56:04;99212.41;;;12.81;72.54
70103;BME280;57470;50.034;15.256;2023-04-22T06:58:29;99213.28;;;13.45;73.45
70103;BME280;57470;50.034;15.256;2023-04-22T07:00:55;99209.41;;;14.01;73.41
70103;BME280;57470;50.034;15.256;2023-04-22T07:03:20;99209.25;;;14.33;72.88
70103;BME280;57470;50.034;15.256;2023-04-22T07:05:46;99196.84;;;14.32;71.00
70103;BME280;57470;50.034;15.256;2023-04-22T07:08:12;99203.59;;;14.26;70.27
70103;BME280;57470;50.034;15.256;2023-04-22T07:10:38;99203.66;;;14.76;70.45
70103;BME280;57470;50.034;15.256;2023-04-22T07:13:03;99195.19;;;14.80;68.76
70103;BME280;57470;50.034;15.256;2023-04-22T07:15:29;99202.69;;;15.06;68.42
70103;BME280;57470;50.034;15.256;2023-04-22T07:17:54;99200.41;;;14.72;68.13
70103;BME280;57470;50.034;15.256;2023-04-22T07:20:20;99201.28;;;15.59;69.25
70103;BME280;57470;50.034;15.256;2023-04-22T07:22:45;99199.31;;;15.32;65.95
70103;BME280;57470;50.034;15.256;2023-04-22T07:25:11;99197.09;;;16.03;66.42
70103;BME280;57470;50.034;15.256;2023-04-22T07:27:36;99195.09;;;15.59;63.35
70103;BME280;57470;50.034;15.256;2023-04-22T07:30:02;99201.22;;;15.98;62.72
70103;BME280;57470;50.034;15.256;2023-04-22T07:32:28;99193.38;;;15.67;63.70
70103;BME280;57470;50.034;15.256;2023-04-22T07:34:53;99192.69;;;16.12;63.55
70103;BME280;57470;50.034;15.256;2023-04-22T07:37:20;99189.44;;;16.45;64.37
70103;BME280;57470;50.034;15.256;2023-04-22T07:39:46;99192.25;;;16.81;61.98
70103;BME280;57470;50.034;15.256;2023-04-22T07:42:11;99190.09;;;16.20;63.60
70103;BME280;57470;50.034;15.256;2023-04-22T07:44:37;99189.19;;;16.39;60.51
70103;BME280;57470;50.034;15.256;2023-04-22T07:47:02;99192.84;;;17.10;61.33
70103;BME280;57470;50.034;15.256;2023-04-22T07:49:28;99183.13;;;16.64;60.35
70103;BME280;57470;50.034;15.256;2023-04-22T07:51:53;99183.19;;;16.82;61.79
70103;BME280;57470;50.034;15.256;2023-04-22T07:54:18;99191.59;;;17.76;61.77
70103;BME280;57470;50.034;15.256;2023-04-22T07:56:44;99181.25;;;17.45;60.96
70103;BME280;57470;50.034;15.256;2023-04-22T07:59:09;99174.47;;;17.59;59.61
70103;BME280;57470;50.034;15.256;2023-04-22T08:01:35;99178.88;;;17.86;59.90
70103;BME280;57470;50.034;15.256;2023-04-22T08:04:00;99181.50;;;17.16;58.71
70103;BME280;57470;50.034;15.256;2023-04-22T08:06:25;99180.75;;;17.24;61.63
70103;BME280;57470;50.034;15.256;2023-04-22T08:08:52;99177.69;;;17.45;58.00
70103;BME280;57470;50.034;15.256;2023-04-22T08:11:17;99186.06;;;17.77;60.25
70103;BME280;57470;50.034;15.256;2023-04-22T08:13:43;99181.50;;;17.16;57.16
70103;BME280;57470;50.034;15.256;2023-04-22T08:16:08;99182.88;;;17.82;59.02
70103;BME280;57470;50.034;15.256;2023-04-22T08:18:34;99178.41;;;17.47;55.74
70103;BME280;57470;50.034;15.256;2023-04-22T08:20:59;99177.09;;;17.94;56.21
70103;BME280;57470;50.034;15.256;2023-04-22T08:23:24;99174.50;;;17.85;57.24
70103;BME280;57470;50.034;15.256;2023-04-22T08:25:50;99167.06;;;18.05;58.99
70103;BME280;57470;50.034;15.256;2023-04-22T08:28:16;99174.69;;;18.51;58.07
70103;BME280;57470;50.034;15.256;2023-04-22T08:30:41;99164.63;;;17.93;55.98
70103;BME280;57470;50.034;15.256;2023-04-22T08:33:07;99171.94;;;18.77;55.41
70103;BME280;57470;50.034;15.256;2023-04-22T08:35:33;99173.09;;;18.74;57.49
70103;BME280;57470;50.034;15.256;2023-04-22T08:37:59;99174.00;;;18.49;57.69
70103;BME280;57470;50.034;15.256;2023-04-22T08:40:26;99173.94;;;18.67;56.38
70103;BME280;57470;50.034;15.256;2023-04-22T08:42:52;99173.56;;;18.62;55.29
70103;BME280;57470;50.034;15.256;2023-04-22T08:45:19;99173.09;;;18.32;55.25
70103;BME280;57470;50.034;15.256;2023-04-22T08:47:46;99168.13;;;19.28;55.64
70103;BME280;57470;50.034;15.256;2023-04-22T08:50:12;99174.59;;;18.61;58.36
70103;BME280;57470;50.034;15.256;2023-04-22T08:52:38;99166.41;;;18.95;55.76
70103;BME280;57470;50.034;15.256;2023-04-22T08:55:03;99168.03;;;18.71;55.59
70103;BME280;57470;50.034;15.256;2023-04-22T08:57:30;99172.16;;;19.16;55.14
70103;BME280;57470;50.034;15.256;2023-04-22T08:59:56;99174.38;;;19.13;54.30
70103;BME280;57470;50.034;15.256;2023-04-22T09:02:23;99166.31;;;18.62;56.97
70103;BME280;57470;50.034;15.256;2023-04-22T09:04:50;99164.75;;;18.52;58.16
70103;BME280;57470;50.034;15.256;2023-04-22T09:07:23;99161.34;;;18.92;56.15
70103;BME280;57470;50.034;15.256;2023-04-22T09:09:49;99164.59;;;19.20;54.24
70103;BME280;57470;50.034;15.256;2023-04-22T09:12:15;99168.81;;;18.56;54.93
70103;BME280;57470;50.034;15.256;2023-04-22T09:14:43;99162.72;;;18.96;55.24
70103;BME280;57470;50.034;15.256;2023-04-22T09:17:09;99172.13;;;19.00;57.74
70103;BME280;57470;50.034;15.256;2023-04-22T09:19:34;99165.28;;;19.70;54.61
70103;BME280;57470;50.034;15.256;2023-04-22T09:22:00;99163.41;;;19.79;53.28
70103;BME280;57470;50.034;15.256;2023-04-22T09:24:27;99161.72;;;19.86;53.79
70103;BME280;57470;50.034;15.256;2023-04-22T09:26:57;99152.31;;;20.29;54.02
70103;BME280;57470;50.034;15.256;2023-04-22T09:29:29;99147.81;;;20.05;52.34
70103;BME280;57470;50.034;15.256;2023-04-22T09:31:56;99142.00;;;20.33;52.32
70103;BME280;57470;50.034;15.256;2023-04-22T09:34:21;99145.31;;;19.96;52.44
70103;BME280;57470;50.034;15.256;2023-04-22T09:36:49;99148.84;;;20.04;55.27
70103;BME280;57470;50.034;15.256;2023-04-22T09:39:15;99137.69;;;20.07;51.44
70103;BME280;57470;50.034;15.256;2023-04-22T09:41:41;99139.66;;;20.30;50.11
70103;BME280;57470;50.034;15.256;2023-04-22T09:44:14;99133.25;;;20.22;53.65
70103;BME280;57470;50.034;15.256;2023-04-22T09:46:43;99134.97;;;20.85;55.59
70103;BME280;57470;50.034;15.256;2023-04-22T09:49:09;99125.78;;;20.33;51.25
70103;BME280;57470;50.034;15.256;2023-04-22T09:51:39;99136.03;;;19.98;50.53
70103;BME280;57470;50.034;15.256;2023-04-22T09:54:06;99121.84;;;20.51;52.93
70103;BME280;57470;50.034;15.256;2023-04-22T09:56:51;99119.63;;;20.55;50.38
70103;BME280;57470;50.034;15.256;2023-04-22T09:59:24;99127.75;;;20.55;51.45
70103;BME280;57470;50.034;15.256;2023-04-22T10:01:54;99112.09;;;19.95;51.72
70103;BME280;57470;50.034;15.256;2023-04-22T10:04:20;99118.91;;;20.30;51.65
70103;BME280;57470;50.034;15.256;2023-04-22T10:06:47;99120.94;;;20.59;53.26
70103;BME280;57470;50.034;15.256;2023-04-22T10:09:14;99113.00;;;20.88;50.50
70103;BME280;57470;50.034;15.256;2023-04-22T10:11:42;99114.41;;;20.84;48.53
70103;BME280;57470;50.034;15.256;2023-04-22T10:14:07;99103.03;;;20.35;50.37
70103;BME280;57470;50.034;15.256;2023-04-22T10:16:37;99106.22;;;20.39;52.56
70103;BME280;57470;50.034;15.256;2023-04-22T10:19:05;99107.78;;;20.64;52.06
70103;BME280;57470;50.034;15.256;2023-04-22T10:21:32;99109.78;;;20.93;53.88
70103;BME280;57470;50.034;15.256;2023-04-22T10:23:59;99102.13;;;21.42;48.65
70103;BME280;57470;50.034;15.256;2023-04-22T10:26:41;99094.59;;;21.67;50.52
70103;BME280;57470;50.034;15.256;2023-04-22T10:29:11;99087.47;;;20.91;47.63
70103;BME280;57470;50.034;15.256;2023-04-22T10:31:37;99084.19;;;21.26;49.10
70103;BME280;57470;50.034;15.256;2023-04-22T10:34:11;99093.50;;;22.20;47.49
70103;BME280;57470;50.034;15.256;2023-04-22T10:36:57;99079.72;;;22.15;47.26
70103;BME280;57470;50.034;15.256;2023-04-22T10:39:24;99092.09;;;22.39;48.26
70103;BME280;57470;50.034;15.256;2023-04-22T10:41:55;99083.00;;;22.46;50.13
70103;BME280;57470;50.034;15.256;2023-04-22T10:44:21;99077.25;;;21.24;49.42
70103;BME280;57470;50.034;15.256;2023-04-22T10:49:24;99074.00;;;22.10;52.23
70103;BME280;57470;50.034;15.256;2023-04-22T10:59:45;99064.69;;;21.98;45.38
70103;BME280;57470;50.034;15.256;2023-04-22T11:02:13;99060.91;;;21.84;45.39
70103;BME280;57470;50.034;15.256;2023-04-22T11:04:39;99062.03;;;22.19;46.00
70103;BME280;57470;50.034;15.256;2023-04-22T11:09:52;99050.09;;;21.69;45.66
70103;BME280;57470;50.034;15.256;2023-04-22T11:15:11;99049.25;;;21.69;47.63
70103;BME280;57470;50.034;15.256;2023-04-22T11:17:38;99042.16;;;21.53;44.60
70103;BME280;57470;50.034;15.256;2023-04-22T11:20:05;99048.50;;;21.46;45.78
70103;BME280;57470;50.034;15.256;2023-04-22T11:22:35;99040.75;;;22.01;45.10
70103;BME280;57470;50.034;15.256;2023-04-22T11:25:01;99041.78;;;22.51;46.03
70103;BME280;57470;50.034;15.256;2023-04-22T11:27:29;99045.19;;;22.38;46.36
70103;BME280;57470;50.034;15.256;2023-04-22T11:30:22;99051.47;;;22.60;45.09
70103;BME280;57470;50.034;15.256;2023-04-22T11:32:55;99040.88;;;22.80;44.44
70103;BME280;57470;50.034;15.256;2023-04-22T11:35:28;99039.94;;;22.01;44.81
70103;BME280;57470;50.034;15.256;2023-04-22T11:40:23;99036.78;;;22.33;44.82
70103;BME280;57470;50.034;15.256;2023-04-22T11:42:50;99032.69;;;22.59;46.53
70103;BME280;57470;50.034;15.256;2023-04-22T11:45:16;99035.34;;;22.73;46.47
70103;BME280;57470;50.034;15.256;2023-04-22T11:47:42;99027.94;;;22.82;43.82
70103;BME280;57470;50.034;15.256;2023-04-22T11:50:11;99019.94;;;22.17;44.41
70103;BME280;57470;50.034;15.256;2023-04-22T11:52:50;99031.72;;;22.81;44.66
70103;BME280;57470;50.034;15.256;2023-04-22T11:57:51;99031.63;;;22.38;43.53
70103;BME280;57470;50.034;15.256;2023-04-22T12:00:17;99031.25;;;22.41;43.94
70103;BME280;57470;50.034;15.256;2023-04-22T12:02:42;99016.91;;;23.05;44.29
70103;BME280;57470;50.034;15.256;2023-04-22T12:05:18;99016.31;;;23.37;42.67
70103;BME280;57470;50.034;15.256;2023-04-22T12:07:44;99025.38;;;22.95;45.69
70103;BME280;57470;50.034;15.256;2023-04-22T12:10:09;99020.56;;;22.55;45.96
70103;BME280;57470;50.034;15.256;2023-04-22T12:12:38;99020.59;;;22.76;42.55
70103;BME280;57470;50.034;15.256;2023-04-22T12:15:09;99011.66;;;23.52;44.31
70103;BME280;57470;50.034;15.256;2023-04-22T12:17:34;99013.03;;;23.48;43.11
70103;BME280;57470;50.034;15.256;2023-04-22T12:20:00;99009.66;;;22.91;46.13
70103;BME280;57470;50.034;15.256;2023-04-22T12:22:27;99012.34;;;23.12;43.56
70103;BME280;57470;50.034;15.256;2023-04-22T12:24:53;99013.06;;;23.20;45.79
70103;BME280;57470;50.034;15.256;2023-04-22T12:27:19;99014.22;;;23.39;44.48
70103;BME280;57470;50.034;15.256;2023-04-22T12:29:52;99011.13;;;23.14;44.18
70103;BME280;57470;50.034;15.256;2023-04-22T12:32:22;98992.28;;;23.06;44.87
70103;BME280;57470;50.034;15.256;2023-04-22T12:34:48;99005.00;;;22.42;44.27
70103;BME280;57470;50.034;15.256;2023-04-22T12:37:14;98999.59;;;23.06;45.29
70103;BME280;57470;50.034;15.256;2023-04-22T12:39:40;98991.72;;;23.17;42.37
70103;BME280;57470;50.034;15.256;2023-04-22T12:42:05;98994.50;;;22.54;42.82
70103;BME280;57470;50.034;15.256;2023-04-22T12:44:32;98995.81;;;22.79;41.76
70103;BME280;57470;50.034;15.256;2023-04-22T12:46:58;98991.88;;;23.09;42.30
70103;BME280;57470;50.034;15.256;2023-04-22T12:49:24;98995.22;;;23.11;42.63
70103;BME280;57470;50.034;15.256;2023-04-22T12:51:49;98993.75;;;22.81;42.92
70103;BME280;57470;50.034;15.256;2023-04-22T12:54:15;98989.84;;;23.46;40.18
70103;BME280;57470;50.034;15.256;2023-04-22T12:56:41;98989.97;;;23.31;42.56
70103;BME280;57470;50.034;15.256;2023-04-22T12:59:07;98981.09;;;23.16;44.80
70103;BME280;57470;50.034;15.256;2023-04-22T13:01:33;98985.88;;;23.42;43.26
70103;BME280;57470;50.034;15.256;2023-04-22T13:03:58;98985.25;;;23.81;42.45
70103;BME280;57470;50.034;15.256;2023-04-22T13:06:23;98981.53;;;24.29;41.28
70103;BME280;57470;50.034;15.256;2023-04-22T13:08:49;98979.06;;;23.52;42.88
70103;BME280;57470;50.034;15.256;2023-04-22T13:11:14;98972.63;;;24.68;42.29
70103;BME280;57470;50.034;15.256;2023-04-22T13:13:40;98968.28;;;24.20;42.46